Time;durP1;ratioP1;P1;durP2;ratioP2;P2;SDS_P1;SDS_P2;PMS_P1;PMS_P2;Temp;Humidity;BMP_temperature;BMP_pressure;BME280_temperature;BME280_humidity;BME280_pressure;Samples;Min_cycle;Max_cycle;Signal;HPM_P1;HPM_P2
2022/08/20 00:01:57;;;;;;;12.32;7.63;;;;;;;18.63;86.29;100707.47;6037102;28;20037;-65
2022/08/20 00:04:52;;;;;;;10.90;6.00;;;;;;;18.42;86.87;100702.16;6032225;28;20038;-64
2022/08/20 00:07:47;;;;;;;11.57;6.80;;;;;;;18.43;87.07;100699.25;6035739;28;20061;-64
2022/08/20 00:10:44;;;;;;;9.90;6.30;;;;;;;18.28;88.29;100698.53;6028056;28;20096;-64
2022/08/20 00:13:53;;;;;;;11.70;6.60;;;;;;;18.16;88.21;100701.94;6039330;28;20030;-64
2022/08/20 00:16:49;;;;;;;9.02;6.40;;;;;;;18.01;89.59;100711.97;6039085;28;20038;-65
2022/08/20 00:19:44;;;;;;;10.93;6.70;;;;;;;18.17;89.54;100709.00;6033515;28;20034;-65
2022/08/20 00:22:39;;;;;;;11.40;6.80;;;;;;;18.52;88.00;100708.03;6037469;28;20076;-65
2022/08/20 00:25:35;;;;;;;12.65;6.80;;;;;;;18.58;87.49;100717.97;6044329;28;20025;-64
2022/08/20 00:28:30;;;;;;;8.43;5.70;;;;;;;18.92;86.99;100695.59;6035839;28;20120;-64
2022/08/20 00:31:26;;;;;;;9.93;6.63;;;;;;;19.02;86.38;100704.94;6040519;28;20042;-65
2022/08/20 00:34:21;;;;;;;9.77;6.40;;;;;;;18.88;85.32;100695.19;6040796;28;20045;-64
2022/08/20 00:37:17;;;;;;;11.97;6.57;;;;;;;18.59;87.15;100716.94;6042386;28;20037;-64
2022/08/20 00:40:15;;;;;;;10.17;5.93;;;;;;;18.32;88.76;100717.75;6039770;28;20026;-65
2022/08/20 00:43:28;;;;;;;10.18;6.38;;;;;;;18.13;89.71;100713.06;6031059;28;20036;-65
2022/08/20 00:46:26;;;;;;;12.95;7.15;;;;;;;17.98;90.72;100723.09;6039033;28;20034;-64
2022/08/20 00:49:25;;;;;;;10.23;6.25;;;;;;;18.31;90.58;100730.38;6045212;28;20507;-65
2022/08/20 00:52:20;;;;;;;12.27;6.60;;;;;;;18.13;90.04;100707.69;6041104;28;20531;-64
2022/08/20 00:55:19;;;;;;;10.93;6.65;;;;;;;18.00;90.84;100716.50;6033212;28;20049;-64
2022/08/20 00:58:15;;;;;;;10.80;6.55;;;;;;;17.99;91.39;100722.06;6037093;28;20026;-65
2022/08/20 01:01:11;;;;;;;9.80;6.45;;;;;;;18.08;91.83;100715.50;6029660;28;20038;-65
2022/08/20 01:04:06;;;;;;;10.27;6.15;;;;;;;18.50;89.36;100725.34;6039221;28;20026;-64
2022/08/20 01:07:04;;;;;;;10.80;6.17;;;;;;;18.39;91.28;100724.03;6028682;28;20062;-64
2022/08/20 01:10:00;;;;;;;10.68;6.47;;;;;;;18.49;89.37;100727.22;6038652;28;20364;-64
2022/08/20 01:12:57;;;;;;;10.27;5.93;;;;;;;18.19;90.89;100717.66;6059486;28;20516;-65
2022/08/20 01:15:54;;;;;;;9.70;5.78;;;;;;;18.52;90.49;100723.28;6049481;28;20030;-64
2022/08/20 01:18:50;;;;;;;12.52;6.40;;;;;;;18.41;89.84;100738.06;6054184;28;20029;-64
2022/08/20 01:21:45;;;;;;;10.20;5.68;;;;;;;18.70;88.71;100737.88;6046012;28;20049;-64
2022/08/20 01:24:42;;;;;;;10.37;6.37;;;;;;;18.90;88.43;100733.44;6048014;28;20034;-64
2022/08/20 01:27:38;;;;;;;10.63;6.85;;;;;;;19.14;87.63;100733.94;6055590;28;20318;-63
2022/08/20 01:30:33;;;;;;;15.27;6.75;;;;;;;19.30;85.79;100733.59;6040068;28;20112;-64
2022/08/20 01:33:29;;;;;;;11.57;6.55;;;;;;;19.27;84.89;100729.44;6042175;28;20469;-64
2022/08/20 01:36:31;;;;;;;11.65;6.93;;;;;;;19.23;84.67;100735.44;6046649;28;20077;-64
2022/08/20 01:39:32;;;;;;;10.00;5.68;;;;;;;18.96;85.61;100746.09;6037524;28;20029;-65
2022/08/20 01:42:36;;;;;;;9.77;6.38;;;;;;;18.75;86.67;100746.16;6028186;28;20106;-64
2022/08/20 01:45:32;;;;;;;9.55;5.97;;;;;;;18.61;87.61;100740.94;6056710;28;20057;-65
2022/08/20 01:48:28;;;;;;;11.15;6.32;;;;;;;18.51;87.99;100735.09;6045787;28;20068;-64
2022/08/20 01:51:28;;;;;;;10.52;5.93;;;;;;;18.43;88.37;100742.22;6042826;28;20041;-65
2022/08/20 01:54:24;;;;;;;10.52;5.85;;;;;;;18.31;88.69;100742.97;6039853;28;20038;-64
2022/08/20 01:57:24;;;;;;;10.07;6.35;;;;;;;18.29;88.69;100728.91;6035756;28;20347;-65
2022/08/20 02:00:21;;;;;;;12.02;7.45;;;;;;;18.35;88.39;100737.00;6045788;28;20029;-65
2022/08/20 02:03:16;;;;;;;11.68;6.45;;;;;;;18.30;88.14;100725.19;6044184;28;20026;-64
2022/08/20 02:06:12;;;;;;;10.97;6.83;;;;;;;18.25;88.08;100723.09;6048597;28;20638;-64
2022/08/20 02:09:08;;;;;;;11.35;7.72;;;;;;;18.18;88.32;100716.03;6028807;28;20121;-64
2022/08/20 02:15:55;;;;;;;11.38;6.88;;;;;;;18.05;88.56;100729.31;6042460;28;20038;-63
2022/08/20 02:18:57;;;;;;;13.17;7.07;;;;;;;18.09;88.72;100727.91;6043126;28;20042;-65
2022/08/20 02:21:57;;;;;;;11.65;6.93;;;;;;;18.41;88.17;100732.69;6031724;28;20056;-64
2022/08/20 02:24:52;;;;;;;11.45;6.82;;;;;;;18.79;86.79;100711.66;6044490;28;20577;-63
2022/08/20 02:27:48;;;;;;;10.67;6.87;;;;;;;18.95;85.36;100719.41;6045534;28;20062;-63
2022/08/20 02:30:47;;;;;;;11.95;6.40;;;;;;;18.97;85.76;100720.00;6041249;28;20038;-64
2022/08/20 02:33:43;;;;;;;10.93;6.55;;;;;;;18.66;86.37;100730.41;6037033;28;20034;-65
2022/08/20 02:36:39;;;;;;;10.90;6.50;;;;;;;18.37;87.28;100720.72;6039407;28;20033;-64
2022/08/20 02:39:35;;;;;;;11.40;6.40;;;;;;;18.13;88.71;100738.06;6040267;28;20088;-65
2022/08/20 02:42:30;;;;;;;9.38;6.28;;;;;;;17.84;90.37;100747.13;6040672;28;20436;-65
2022/08/20 02:45:26;;;;;;;9.93;6.27;;;;;;;17.65;91.69;100758.47;6033910;28;20041;-64
2022/08/20 02:48:22;;;;;;;12.68;6.88;;;;;;;17.55;92.45;100754.44;6034300;28;20041;-64
2022/08/20 02:51:17;;;;;;;13.90;6.87;;;;;;;17.46;93.19;100742.97;6039025;28;20046;-64
2022/08/20 02:54:13;;;;;;;9.57;5.77;;;;;;;17.57;93.40;100749.72;6041894;28;20291;-64
2022/08/20 02:57:13;;;;;;;11.23;6.55;;;;;;;17.56;93.41;100748.03;6037276;28;20026;-64
2022/08/20 03:00:17;;;;;;;8.55;6.03;;;;;;;17.53;93.67;100748.44;6038474;28;20180;-64
2022/08/20 03:03:14;;;;;;;10.10;6.20;;;;;;;17.40;93.92;100743.72;6042476;28;20026;-64
2022/08/20 03:06:09;;;;;;;11.40;7.00;;;;;;;17.65;92.96;100758.47;6043548;28;20071;-64
2022/08/20 03:09:07;;;;;;;12.63;6.72;;;;;;;17.59;92.58;100745.81;6036806;28;20481;-64
2022/08/20 03:12:05;;;;;;;12.20;6.80;;;;;;;17.75;91.33;100748.25;6040255;28;20033;-64
2022/08/20 03:15:00;;;;;;;12.77;6.47;;;;;;;17.66;91.46;100757.47;6042046;28;20667;-63
2022/08/20 03:17:56;;;;;;;9.93;6.33;;;;;;;17.71;91.13;100757.72;6042089;28;20025;-65
2022/08/20 03:20:51;;;;;;;11.35;6.43;;;;;;;18.12;90.66;100765.13;6037177;28;20041;-64
2022/08/20 03:23:46;;;;;;;9.97;5.90;;;;;;;18.29;88.88;100758.44;6041980;28;20069;-64
2022/08/20 03:26:42;;;;;;;9.97;6.70;;;;;;;18.11;88.28;100758.06;6046492;28;20022;-63
2022/08/20 03:29:37;;;;;;;11.75;6.45;;;;;;;18.24;88.63;100758.19;6038552;28;20288;-64
2022/08/20 03:32:32;;;;;;;9.57;5.93;;;;;;;17.96;87.96;100743.91;6036815;28;20120;-65
2022/08/20 03:35:30;;;;;;;11.77;5.88;;;;;;;18.14;87.74;100755.84;6044517;28;20316;-64
2022/08/20 03:38:25;;;;;;;8.20;5.45;;;;;;;17.96;88.00;100754.66;6044978;28;20095;-63
2022/08/20 03:41:21;;;;;;;11.20;5.72;;;;;;;17.84;88.79;100752.47;6042519;28;20117;-64
2022/08/20 03:44:17;;;;;;;11.80;5.90;;;;;;;18.23;89.24;100757.38;6030099;28;20029;-63
2022/08/20 03:47:12;;;;;;;7.82;5.20;;;;;;;18.08;87.99;100758.47;6033556;28;20029;-65
2022/08/20 03:50:11;;;;;;;9.65;5.15;;;;;;;17.85;89.31;100762.19;6032272;28;20366;-64
2022/08/20 03:53:08;;;;;;;11.40;6.30;;;;;;;17.60;90.08;100760.06;6043315;28;20052;-64
2022/08/20 03:56:04;;;;;;;9.10;5.57;;;;;;;17.62;90.55;100769.59;6038213;28;20030;-64
2022/08/20 03:59:00;;;;;;;9.85;6.20;;;;;;;17.41;90.92;100756.13;6036344;28;20026;-63
2022/08/20 04:01:56;;;;;;;9.20;5.75;;;;;;;17.26;91.86;100763.34;6041371;28;20029;-65
2022/08/20 04:04:51;;;;;;;11.05;6.10;;;;;;;17.16;92.54;100768.19;6023186;28;20425;-64
2022/08/20 04:07:46;;;;;;;8.93;6.07;;;;;;;17.16;92.45;100778.91;6036112;28;20084;-63
2022/08/20 04:10:44;;;;;;;11.03;6.13;;;;;;;17.01;93.45;100775.44;6038855;28;20042;-63
2022/08/20 04:13:39;;;;;;;11.35;6.25;;;;;;;16.91;93.96;100764.13;6044759;28;20113;-63
2022/08/20 04:16:36;;;;;;;11.33;5.83;;;;;;;17.23;93.33;100777.13;6042865;28;20045;-64
2022/08/20 04:19:32;;;;;;;11.43;6.38;;;;;;;17.11;92.80;100776.81;6031542;28;20034;-64
2022/08/20 04:22:27;;;;;;;9.75;6.05;;;;;;;16.98;93.06;100770.44;6039772;28;20807;-65
2022/08/20 04:25:22;;;;;;;9.93;5.30;;;;;;;16.85;93.73;100775.63;6042065;28;20038;-65
2022/08/20 04:28:25;;;;;;;9.67;5.83;;;;;;;16.81;94.33;100787.72;6045968;28;20565;-65
2022/08/20 04:31:23;;;;;;;9.65;5.78;;;;;;;16.69;94.67;100781.97;6029897;28;20842;-63
2022/08/20 04:34:18;;;;;;;13.48;6.30;;;;;;;16.67;95.16;100792.88;6034020;28;20032;-65
2022/08/20 04:37:18;;;;;;;11.75;6.30;;;;;;;16.71;95.25;100797.88;6041295;28;20422;-65
2022/08/20 04:43:33;;;;;;;13.32;6.47;;;;;;;16.95;93.83;100802.97;6042657;28;20681;-64
2022/08/20 04:46:31;;;;;;;11.57;6.53;;;;;;;16.89;93.42;100801.84;6042017;28;20062;-64
2022/08/20 04:49:26;;;;;;;11.45;5.60;;;;;;;16.99;93.17;100796.19;6048291;28;20146;-65
2022/08/20 04:52:22;;;;;;;9.43;5.75;;;;;;;17.47;91.06;100786.72;6040106;28;20426;-64
2022/08/20 04:55:17;;;;;;;12.70;6.37;;;;;;;17.46;89.97;100801.13;6040100;28;20079;-63
2022/08/20 04:58:33;;;;;;;10.55;6.07;;;;;;;17.37;90.93;100803.09;6041871;28;20026;-65
2022/08/20 05:01:29;;;;;;;9.82;6.43;;;;;;;17.36;92.24;100801.44;6042004;28;20034;-64
2022/08/20 05:04:26;;;;;;;13.37;6.83;;;;;;;17.34;92.96;100797.28;6039370;28;20484;-64
2022/08/20 05:07:21;;;;;;;11.02;6.78;;;;;;;17.38;92.99;100794.03;6039508;28;20041;-65
2022/08/20 05:10:17;;;;;;;11.20;7.43;;;;;;;17.47;92.60;100808.16;6041904;28;20046;-65
2022/08/20 05:13:12;;;;;;;11.85;6.50;;;;;;;17.67;92.00;100820.81;6048896;28;20033;-65
2022/08/20 05:16:08;;;;;;;12.63;6.90;;;;;;;17.85;90.91;100807.78;6045431;28;20025;-64
2022/08/20 05:19:07;;;;;;;10.50;6.80;;;;;;;18.01;89.95;100805.88;6036308;28;20504;-63
2022/08/20 05:22:03;;;;;;;10.55;7.13;;;;;;;18.32;88.11;100814.41;6048653;28;20385;-65
2022/08/20 05:25:00;;;;;;;11.88;6.65;;;;;;;18.37;86.98;100804.75;6042257;28;20037;-63
2022/08/20 05:28:08;;;;;;;12.32;7.43;;;;;;;18.43;86.42;100806.69;6041598;28;20034;-65
2022/08/20 05:31:06;;;;;;;12.80;6.95;;;;;;;18.52;85.87;100795.81;6037456;28;20030;-64
2022/08/20 05:34:09;;;;;;;10.63;6.82;;;;;;;18.76;85.92;100812.31;6046490;28;20081;-65
2022/08/20 05:37:04;;;;;;;13.32;6.10;;;;;;;18.85;84.50;100808.47;6046878;28;20026;-65
2022/08/20 05:40:00;;;;;;;10.48;7.10;;;;;;;19.24;82.97;100812.41;6043803;28;20049;-65
2022/08/20 05:42:55;;;;;;;11.07;6.77;;;;;;;19.18;81.88;100815.88;6041193;28;20073;-65
2022/08/20 05:45:52;;;;;;;9.75;6.32;;;;;;;19.00;81.17;100814.53;6043429;28;20276;-65
2022/08/20 05:48:47;;;;;;;10.88;5.97;;;;;;;19.03;80.59;100806.06;6043447;28;20053;-65
2022/08/20 05:51:43;;;;;;;11.83;6.40;;;;;;;19.03;80.58;100808.75;6046066;28;20080;-65
2022/08/20 05:54:38;;;;;;;9.73;5.83;;;;;;;18.90;80.97;100808.69;6044382;28;20030;-65
2022/08/20 05:57:34;;;;;;;10.20;5.80;;;;;;;19.18;80.00;100816.72;6044891;28;20116;-65
2022/08/20 06:00:32;;;;;;;8.38;5.65;;;;;;;19.12;80.08;100816.66;6037899;28;20109;-64
2022/08/20 06:06:41;;;;;;;8.73;5.25;;;;;;;19.33;79.33;100817.41;6038948;28;20033;-65
2022/08/20 06:09:36;;;;;;;9.30;5.00;;;;;;;19.45;78.62;100818.53;6037994;28;20034;-63
2022/08/20 06:12:31;;;;;;;8.87;5.47;;;;;;;19.48;78.66;100814.59;6041596;28;20049;-64
2022/08/20 06:15:27;;;;;;;9.23;5.18;;;;;;;19.92;77.95;100836.44;6042830;28;20437;-64
2022/08/20 06:18:23;;;;;;;8.82;5.25;;;;;;;19.97;77.01;100830.47;6035862;28;20409;-63
2022/08/20 06:21:19;;;;;;;7.55;4.85;;;;;;;20.26;77.21;100837.38;6034798;28;20104;-65
2022/08/20 06:24:14;;;;;;;8.63;5.40;;;;;;;20.27;75.52;100814.81;6032378;28;20084;-64
2022/08/20 06:27:13;;;;;;;10.47;5.43;;;;;;;20.08;77.13;100821.78;6041845;28;20386;-65
2022/08/20 06:30:11;;;;;;;10.77;5.63;;;;;;;19.82;77.21;100832.50;6043520;28;20056;-64
2022/08/20 06:33:06;;;;;;;9.95;5.88;;;;;;;20.05;77.08;100831.13;6039616;28;20109;-64
2022/08/20 06:36:03;;;;;;;10.80;6.60;;;;;;;19.93;76.44;100823.81;6045173;28;20034;-65
2022/08/20 06:38:59;;;;;;;10.15;6.57;;;;;;;20.15;76.36;100836.91;6040874;28;20113;-64
2022/08/20 06:41:54;;;;;;;10.32;6.38;;;;;;;20.18;76.73;100839.22;6037795;28;20064;-65
2022/08/20 06:44:50;;;;;;;12.57;6.32;;;;;;;20.18;77.75;100825.75;6034192;28;20092;-65
2022/08/20 06:47:46;;;;;;;13.95;7.38;;;;;;;20.61;76.11;100836.13;6032328;28;20081;-65
2022/08/20 06:50:44;;;;;;;12.65;6.82;;;;;;;20.78;75.42;100845.47;6036495;28;20351;-65
2022/08/20 06:53:40;;;;;;;12.70;7.15;;;;;;;20.52;77.15;100858.97;6038745;28;20034;-63
2022/08/20 06:56:35;;;;;;;14.00;6.80;;;;;;;20.56;76.93;100861.03;6028421;28;20080;-65
2022/08/20 06:59:30;;;;;;;11.77;6.10;;;;;;;20.74;76.06;100853.13;6043689;28;20477;-65
2022/08/20 07:02:26;;;;;;;10.77;6.57;;;;;;;20.50;77.40;100850.22;6045185;28;20037;-65
2022/08/20 07:05:21;;;;;;;10.37;6.53;;;;;;;20.35;78.27;100857.69;6042231;28;20061;-65
2022/08/20 07:08:20;;;;;;;12.53;6.97;;;;;;;20.29;78.74;100853.97;6036679;28;20037;-65
2022/08/20 07:11:16;;;;;;;13.10;7.35;;;;;;;20.29;79.37;100858.50;6040421;28;20644;-64
2022/08/20 07:14:11;;;;;;;13.55;7.95;;;;;;;20.55;77.43;100842.34;6027314;28;20042;-64
2022/08/20 07:17:06;;;;;;;12.57;7.50;;;;;;;20.68;77.26;100856.66;6037474;28;20042;-64
2022/08/20 07:20:06;;;;;;;15.03;7.57;;;;;;;20.57;78.15;100856.47;6042666;28;20556;-65
2022/08/20 07:23:02;;;;;;;15.18;8.52;;;;;;;20.63;78.62;100869.94;6048824;28;20026;-64
2022/08/20 07:25:57;;;;;;;14.20;7.53;;;;;;;20.92;77.44;100867.84;6033684;28;20332;-65
2022/08/20 07:28:53;;;;;;;12.25;7.75;;;;;;;20.93;77.06;100859.53;6046625;28;20099;-64
2022/08/20 07:35:08;;;;;;;16.17;7.80;;;;;;;21.47;74.99;100872.69;6040824;28;20049;-64
2022/08/20 07:38:03;;;;;;;13.02;6.68;;;;;;;21.52;74.68;100866.69;6034185;28;20117;-64
2022/08/20 07:41:04;;;;;;;12.40;7.10;;;;;;;21.57;73.56;100873.09;6044567;28;20034;-64
2022/08/20 07:43:59;;;;;;;11.90;7.57;;;;;;;21.44;73.73;100859.66;6035180;28;20377;-65
2022/08/20 07:46:57;;;;;;;14.23;7.73;;;;;;;21.72;73.17;100862.00;6041824;28;20049;-64
2022/08/20 07:49:52;;;;;;;10.50;6.95;;;;;;;21.92;72.71;100879.81;6045615;28;20061;-65
2022/08/20 07:52:51;;;;;;;16.37;7.37;;;;;;;22.14;71.26;100877.63;6040616;28;20041;-65
2022/08/20 07:55:46;;;;;;;12.90;7.93;;;;;;;22.21;70.70;100877.56;6035322;28;20037;-63
2022/08/20 07:58:48;;;;;;;12.20;7.07;;;;;;;22.09;71.04;100882.84;6034640;28;20037;-65
2022/08/20 08:01:43;;;;;;;13.50;7.63;;;;;;;21.98;70.99;100878.13;6039645;28;20113;-65
2022/08/20 08:04:39;;;;;;;13.50;6.43;;;;;;;22.15;71.29;100881.97;6037319;28;20496;-63
2022/08/20 08:07:35;;;;;;;12.55;6.68;;;;;;;22.53;69.35;100893.53;6043095;28;20056;-65
2022/08/20 08:10:30;;;;;;;9.20;6.53;;;;;;;22.49;69.83;100892.34;6041852;28;20038;-64
2022/08/20 08:13:27;;;;;;;8.65;6.00;;;;;;;22.21;69.25;100894.59;6035257;28;20030;-65
2022/08/20 08:16:23;;;;;;;10.80;6.40;;;;;;;22.07;69.55;100876.81;6037345;28;20042;-64
2022/08/20 08:19:18;;;;;;;10.57;6.10;;;;;;;22.22;69.13;100880.06;6039497;28;20054;-65
2022/08/20 08:22:15;;;;;;;10.20;6.18;;;;;;;22.06;69.36;100888.69;6036890;28;20387;-65
2022/08/20 08:25:13;;;;;;;9.30;5.68;;;;;;;22.18;70.27;100899.59;6043141;28;20122;-63
2022/08/20 08:28:10;;;;;;;10.30;6.32;;;;;;;22.01;70.88;100888.50;6047539;28;20061;-64
2022/08/20 08:31:05;;;;;;;9.57;6.28;;;;;;;22.46;70.57;100892.78;6042411;28;20052;-65
2022/08/20 08:34:01;;;;;;;11.20;7.20;;;;;;;22.19;69.50;100899.41;6046795;28;20034;-64
2022/08/20 08:36:57;;;;;;;9.77;5.27;;;;;;;22.63;69.43;100903.06;6035418;28;20034;-66
2022/08/20 08:39:52;;;;;;;9.02;5.88;;;;;;;23.00;67.41;100899.41;6045201;28;20065;-65
2022/08/20 08:42:56;;;;;;;8.03;5.07;;;;;;;23.17;67.19;100903.22;6046369;28;20029;-65
2022/08/20 08:46:00;;;;;;;10.00;5.93;;;;;;;23.00;67.18;100911.06;6039678;28;20038;-64
2022/08/20 08:48:57;;;;;;;11.13;6.50;;;;;;;22.56;68.54;100913.09;6041919;28;20061;-65
2022/08/20 08:51:59;;;;;;;11.85;6.57;;;;;;;22.73;69.00;100914.22;6038465;28;20026;-65
2022/08/20 08:54:58;;;;;;;10.55;6.47;;;;;;;22.53;69.22;100914.34;6058329;28;20034;-64
2022/08/20 08:57:56;;;;;;;72.28;20.70;;;;;;;22.48;69.97;100923.13;6040614;28;20101;-64
2022/08/20 09:00:51;;;;;;;10.73;6.47;;;;;;;22.38;70.15;100922.78;6035031;28;20479;-63
2022/08/20 09:03:48;;;;;;;11.67;5.67;;;;;;;22.59;69.74;100918.03;6045794;28;20060;-64
2022/08/20 09:06:43;;;;;;;10.63;6.32;;;;;;;22.87;68.08;100924.72;6038754;28;20057;-65
2022/08/20 09:09:41;;;;;;;9.70;5.57;;;;;;;22.82;68.45;100929.13;6047898;28;20393;-65
2022/08/20 09:12:36;;;;;;;10.60;6.00;;;;;;;23.11;67.10;100917.63;6044129;28;20288;-65
2022/08/20 09:15:32;;;;;;;11.93;5.17;;;;;;;23.58;65.87;100908.84;6041636;28;20386;-64
2022/08/20 09:18:27;;;;;;;9.13;5.40;;;;;;;23.60;64.80;100917.56;6047222;28;20044;-64
2022/08/20 09:21:23;;;;;;;9.50;5.10;;;;;;;23.85;64.72;100914.75;6036443;28;20591;-65
2022/08/20 09:24:18;;;;;;;8.57;5.20;;;;;;;23.59;64.80;100917.81;6036575;28;20457;-64
2022/08/20 09:27:14;;;;;;;7.95;4.90;;;;;;;23.56;64.68;100924.47;6048988;28;20041;-65
2022/08/20 09:30:10;;;;;;;12.43;5.90;;;;;;;23.32;64.88;100911.78;6048737;28;20042;-64
2022/08/20 09:33:05;;;;;;;8.95;5.50;;;;;;;23.43;64.71;100931.91;6049132;28;20045;-64
2022/08/20 09:36:00;;;;;;;11.23;6.33;;;;;;;23.60;63.59;100911.31;6040531;28;20034;-64
2022/08/20 09:38:56;;;;;;;9.20;5.60;;;;;;;23.61;63.39;100929.22;6048469;28;20429;-64
2022/08/20 09:41:51;;;;;;;9.73;5.70;;;;;;;23.75;63.51;100921.78;6048299;28;20284;-64
2022/08/20 09:44:46;;;;;;;8.23;6.00;;;;;;;24.09;60.53;100913.00;6044534;28;20499;-65
2022/08/20 09:47:41;;;;;;;11.73;6.27;;;;;;;23.67;62.05;100910.16;6042135;28;20030;-64
2022/08/20 09:50:41;;;;;;;11.43;5.80;;;;;;;24.23;60.61;100911.78;6047699;28;20282;-65
2022/08/20 09:53:36;;;;;;;9.35;5.45;;;;;;;24.74;60.10;100909.28;6041036;28;20038;-64
2022/08/20 09:56:32;;;;;;;8.48;5.32;;;;;;;24.83;58.39;100902.50;6036934;28;20075;-65
2022/08/20 09:59:29;;;;;;;9.65;5.72;;;;;;;24.69;59.23;100902.91;6046376;28;20076;-64
2022/08/20 10:02:25;;;;;;;11.43;5.80;;;;;;;24.72;60.35;100910.59;6048004;28;20055;-64
2022/08/20 10:05:20;;;;;;;8.73;5.85;;;;;;;24.68;59.17;100915.66;6037873;28;20121;-64
2022/08/20 10:08:17;;;;;;;8.60;5.40;;;;;;;24.69;58.90;100922.75;6036790;28;20054;-65
2022/08/20 10:11:12;;;;;;;12.63;6.20;;;;;;;24.37;59.98;100917.81;6036668;28;20026;-65
2022/08/20 10:14:10;;;;;;;9.67;6.27;;;;;;;24.15;60.43;100909.38;6041430;28;20034;-65
2022/08/20 10:17:05;;;;;;;11.43;6.72;;;;;;;24.12;60.73;100923.38;6041306;28;20027;-64
2022/08/20 10:20:00;;;;;;;8.80;5.67;;;;;;;23.89;62.00;100926.78;6030880;28;20516;-65
2022/08/20 10:22:55;;;;;;;9.27;6.07;;;;;;;23.65;62.32;100914.16;6047599;28;20061;-64
2022/08/20 10:25:51;;;;;;;13.00;6.90;;;;;;;23.49;62.98;100926.44;6038811;28;20283;-65
2022/08/20 10:28:46;;;;;;;9.77;5.40;;;;;;;23.91;61.85;100919.28;6046314;28;20037;-64
2022/08/20 10:31:41;;;;;;;12.20;6.20;;;;;;;24.37;60.75;100924.09;6039708;28;20481;-65
2022/08/20 10:34:42;;;;;;;11.25;6.93;;;;;;;24.42;60.19;100915.25;6042950;28;20041;-64
2022/08/20 10:37:38;;;;;;;9.73;6.45;;;;;;;24.63;59.94;100907.38;6040384;28;20037;-65
2022/08/20 10:40:33;;;;;;;11.77;6.57;;;;;;;24.66;59.47;100919.66;6043089;28;20097;-64
2022/08/20 10:43:28;;;;;;;9.20;6.33;;;;;;;24.67;59.92;100914.03;6046171;28;20048;-64
2022/08/20 10:46:24;;;;;;;9.30;6.17;;;;;;;24.63;60.53;100912.81;6034322;28;20038;-65
2022/08/20 10:49:19;;;;;;;13.27;7.83;;;;;;;24.36;60.71;100913.44;6045708;28;21047;-65
2022/08/20 10:52:16;;;;;;;10.30;7.73;;;;;;;24.45;60.15;100918.31;6046600;28;20048;-65
2022/08/20 10:55:12;;;;;;;10.23;7.65;;;;;;;24.68;59.01;100902.09;6044134;28;20030;-64
2022/08/20 10:58:07;;;;;;;8.90;6.65;;;;;;;24.73;59.45;100910.34;6041391;28;20113;-64
2022/08/20 11:01:03;;;;;;;11.63;7.30;;;;;;;24.88;59.64;100914.53;6043002;28;20021;-64
2022/08/20 11:03:58;;;;;;;18.83;7.07;;;;;;;24.94;59.36;100916.31;6038217;28;20049;-66
2022/08/20 11:06:53;;;;;;;9.45;6.80;;;;;;;24.91;59.42;100914.06;6033914;28;20120;-64
2022/08/20 11:09:50;;;;;;;14.37;8.73;;;;;;;24.78;58.81;100909.66;6033311;28;20076;-65
2022/08/20 11:12:45;;;;;;;10.90;7.65;;;;;;;25.48;57.96;100901.56;6036662;28;20388;-65
2022/08/20 11:15:42;;;;;;;13.03;7.87;;;;;;;25.02;58.22;100922.22;6036264;28;20077;-65
2022/08/20 11:18:37;;;;;;;9.20;7.05;;;;;;;25.69;57.09;100907.16;6032564;28;20062;-65
2022/08/20 11:21:33;;;;;;;9.63;6.90;;;;;;;25.77;56.67;100904.06;6046059;28;20048;-65
2022/08/20 11:24:28;;;;;;;11.10;7.00;;;;;;;26.21;55.28;100905.25;6042638;28;20616;-64
2022/08/20 11:27:33;;;;;;;10.90;6.93;;;;;;;25.93;55.32;100905.19;6025713;28;20093;-65
2022/08/20 11:30:31;;;;;;;8.98;7.00;;;;;;;26.25;55.39;100905.59;6040068;28;20042;-65
2022/08/20 11:33:27;;;;;;;9.88;6.50;;;;;;;25.91;55.42;100905.44;6031634;28;20108;-65
2022/08/20 11:36:25;;;;;;;9.10;6.68;;;;;;;26.17;53.86;100908.69;6036334;28;20040;-65
2022/08/20 11:39:20;;;;;;;9.80;6.18;;;;;;;26.64;52.57;100904.63;6037892;28;20038;-65
2022/08/20 11:42:15;;;;;;;12.80;6.00;;;;;;;26.49;53.85;100915.25;6045786;28;20045;-65
2022/08/20 11:45:11;;;;;;;10.57;7.68;;;;;;;25.51;55.09;100910.06;6040003;28;20037;-64
2022/08/20 11:48:06;;;;;;;10.83;5.90;;;;;;;25.88;55.10;100905.94;6043493;28;20101;-65
2022/08/20 11:51:01;;;;;;;8.13;5.10;;;;;;;26.07;53.96;100914.72;6040803;28;20052;-64
2022/08/20 11:53:57;;;;;;;9.27;5.83;;;;;;;26.60;51.83;100919.81;6024173;28;20539;-64
2022/08/20 11:56:52;;;;;;;9.37;5.50;;;;;;;25.93;52.93;100916.06;6035414;28;20030;-65
2022/08/20 11:59:51;;;;;;;8.13;5.10;;;;;;;25.71;53.95;100915.09;6036118;28;20129;-65
2022/08/20 12:02:48;;;;;;;9.05;5.15;;;;;;;25.40;54.67;100928.00;6034046;28;20040;-65
2022/08/20 12:05:46;;;;;;;6.78;4.43;;;;;;;24.70;56.23;100942.56;6034326;28;20038;-66
2022/08/20 12:08:44;;;;;;;6.80;4.00;;;;;;;23.93;61.45;100938.00;6034705;28;20034;-65
2022/08/20 12:11:39;;;;;;;10.63;4.33;;;;;;;23.33;65.52;100947.81;6034556;28;20480;-64
2022/08/20 12:14:35;;;;;;;8.25;4.18;;;;;;;23.16;66.36;100952.97;6044649;28;20057;-64
2022/08/20 12:17:31;;;;;;;6.03;4.05;;;;;;;23.33;66.47;100943.22;6038204;28;20038;-65
2022/08/20 12:20:26;;;;;;;7.00;3.13;;;;;;;23.52;66.93;100952.22;6044276;28;20113;-64
2022/08/20 12:23:22;;;;;;;4.33;2.47;;;;;;;23.75;65.86;100963.22;6036065;28;20042;-64
2022/08/20 12:26:17;;;;;;;3.93;1.90;;;;;;;23.94;65.23;100962.16;6030026;28;20416;-64
2022/08/20 12:29:12;;;;;;;2.95;2.00;;;;;;;23.77;65.38;100971.94;6038635;28;20131;-64
2022/08/20 12:32:08;;;;;;;2.47;1.10;;;;;;;23.90;63.87;100960.13;6041698;28;20053;-64
2022/08/20 12:35:06;;;;;;;1.90;0.95;;;;;;;23.13;63.86;100964.22;6034232;28;20435;-65
2022/08/20 12:38:04;;;;;;;1.85;0.73;;;;;;;22.90;64.40;100966.72;6034836;28;20038;-65
2022/08/20 12:41:00;;;;;;;2.47;0.70;;;;;;;22.97;64.57;100956.69;6037006;28;20378;-65
2022/08/20 12:43:55;;;;;;;0.77;0.77;;;;;;;23.04;63.64;100965.59;6032818;28;20053;-64
2022/08/20 12:46:50;;;;;;;1.20;0.70;;;;;;;23.17;62.84;100965.47;6044055;28;20042;-65
2022/08/20 12:49:54;;;;;;;1.13;0.70;;;;;;;22.61;64.89;100961.94;6040708;28;20073;-63
2022/08/20 12:52:51;;;;;;;2.78;1.40;;;;;;;22.17;68.73;100957.41;6032990;28;20108;-65
2022/08/20 12:55:46;;;;;;;2.97;1.60;;;;;;;22.02;69.89;100948.75;6032728;28;20109;-65
2022/08/20 12:58:41;;;;;;;8.50;1.60;;;;;;;22.17;70.57;100947.44;6037243;28;20081;-66
2022/08/20 13:01:37;;;;;;;3.53;1.75;;;;;;;22.21;71.92;100953.22;6034644;28;20282;-64
2022/08/20 13:04:32;;;;;;;3.00;1.40;;;;;;;21.95;71.23;100943.38;6033720;28;20037;-65
2022/08/20 13:07:27;;;;;;;4.63;1.80;;;;;;;22.41;68.85;100941.25;6041251;28;20062;-64
2022/08/20 13:10:31;;;;;;;2.37;1.50;;;;;;;22.75;67.58;100955.38;6038794;28;20746;-66
2022/08/20 13:13:27;;;;;;;3.35;1.50;;;;;;;23.35;66.73;100943.81;6045215;28;20073;-64
2022/08/20 13:16:22;;;;;;;2.07;1.30;;;;;;;23.61;65.70;100932.75;6032469;28;20097;-64
2022/08/20 13:19:17;;;;;;;3.27;1.30;;;;;;;24.02;63.60;100942.06;6037485;28;20042;-64
2022/08/20 13:22:13;;;;;;;1.57;1.20;;;;;;;23.91;63.45;100940.94;6037980;28;20037;-63
2022/08/20 13:25:10;;;;;;;2.53;0.93;;;;;;;23.94;63.35;100945.91;6033199;28;20037;-64
2022/08/20 13:28:05;;;;;;;1.75;1.05;;;;;;;23.92;63.39;100944.47;6049630;28;20477;-64
2022/08/20 13:31:01;;;;;;;1.13;0.83;;;;;;;24.10;62.14;100930.94;6036842;28;20037;-64
2022/08/20 13:33:56;;;;;;;1.27;0.90;;;;;;;23.92;62.59;100937.16;6039222;28;20291;-65
2022/08/20 13:36:51;;;;;;;2.13;0.90;;;;;;;24.03;62.40;100927.44;6033342;28;20680;-64
2022/08/20 13:39:47;;;;;;;1.13;0.90;;;;;;;24.09;61.98;100927.38;6034634;28;20053;-64
2022/08/20 13:42:42;;;;;;;1.67;0.90;;;;;;;23.97;61.25;100933.78;6042402;28;20038;-65
2022/08/20 13:45:38;;;;;;;1.20;0.80;;;;;;;24.41;60.53;100925.25;6045791;28;20418;-65
2022/08/20 13:48:33;;;;;;;1.92;1.10;;;;;;;24.27;60.66;100918.38;6046299;28;20092;-65